Time;durP1;ratioP1;P1;durP2;ratioP2;P2;SDS_P1;SDS_P2;PMS_P1;PMS_P2;Temp;Humidity;BMP_temperature;BMP_pressure;BME280_temperature;BME280_humidity;BME280_pressure;Samples;Min_cycle;Max_cycle;Signal;HPM_P1;HPM_P2
2023/08/31 00:02:27;;;;;;;3.55;0.90;;;;;;;-145.70;100.00;63560.63;5043551;28;20084;-62
2023/08/31 00:04:58;;;;;;;3.83;0.93;;;;;;;-145.70;100.00;63560.63;5029513;28;20024;-62
2023/08/31 00:07:23;;;;;;;4.65;0.77;;;;;;;-145.70;100.00;63560.63;5043870;28;20132;-61
2023/08/31 00:09:49;;;;;;;2.67;0.82;;;;;;;-145.70;100.00;63560.63;5043350;28;20036;-61
2023/08/31 00:12:15;;;;;;;3.35;0.90;;;;;;;-145.70;100.00;63560.63;5045636;28;20404;-62
2023/08/31 00:14:40;;;;;;;4.18;0.80;;;;;;;-145.70;100.00;63560.63;5026395;28;20430;-61
2023/08/31 00:17:06;;;;;;;2.35;0.60;;;;;;;-145.70;100.00;63560.63;5043255;28;20090;-61
2023/08/31 00:19:31;;;;;;;3.17;0.70;;;;;;;-145.70;100.00;63560.63;5044026;28;20060;-60
2023/08/31 00:21:57;;;;;;;2.50;0.73;;;;;;;-145.70;100.00;63560.63;5044393;28;20098;-62
2023/08/31 00:24:28;;;;;;;2.85;0.80;;;;;;;-145.70;100.00;63560.63;5024586;28;20040;-62
2023/08/31 00:26:55;;;;;;;3.25;0.70;;;;;;;-145.70;100.00;63560.63;5043421;28;20055;-62
2023/08/31 00:29:25;;;;;;;3.55;0.80;;;;;;;-145.70;100.00;63560.63;5045405;28;20122;-61
2023/08/31 00:31:53;;;;;;;4.68;0.90;;;;;;;-145.70;100.00;63560.63;5017833;28;20029;-62
2023/08/31 00:34:20;;;;;;;5.35;1.10;;;;;;;-145.70;100.00;63560.63;5041626;28;20025;-62
2023/08/31 00:36:48;;;;;;;5.32;1.13;;;;;;;-145.70;100.00;63560.63;5027222;28;20040;-62
2023/08/31 00:39:14;;;;;;;3.08;0.80;;;;;;;-145.70;100.00;63560.63;5027355;28;20110;-62
2023/08/31 00:41:42;;;;;;;3.85;0.88;;;;;;;-145.70;100.00;63560.63;5028168;28;20040;-62
2023/08/31 00:44:07;;;;;;;2.30;0.80;;;;;;;-145.70;100.00;63560.63;5027070;28;20020;-63
2023/08/31 00:46:33;;;;;;;3.10;0.85;;;;;;;-145.70;100.00;63560.63;5044484;28;20037;-62
2023/08/31 00:49:03;;;;;;;2.28;0.80;;;;;;;-145.70;100.00;63560.63;5044544;28;20025;-61
2023/08/31 00:51:28;;;;;;;3.42;0.88;;;;;;;-145.70;100.00;63560.63;5039865;28;20039;-60
2023/08/31 00:54:00;;;;;;;2.92;0.70;;;;;;;-145.70;100.00;63560.63;5041805;28;20033;-62
2023/08/31 00:56:26;;;;;;;3.20;0.90;;;;;;;-145.70;100.00;63560.63;5055770;28;20033;-62
2023/08/31 00:58:54;;;;;;;3.03;0.88;;;;;;;-145.70;100.00;63560.63;5026796;28;20025;-62
2023/08/31 01:01:25;;;;;;;2.83;0.85;;;;;;;-145.70;100.00;63560.63;5044371;28;20116;-60
2023/08/31 01:04:12;;;;;;;2.58;0.77;;;;;;;-145.70;100.00;63560.63;5043929;28;20036;-62
2023/08/31 01:06:55;;;;;;;4.60;0.93;;;;;;;-145.70;100.00;63560.63;5044552;28;20111;-61
2023/08/31 01:09:32;;;;;;;3.13;1.05;;;;;;;-145.70;100.00;63560.63;5041606;28;20033;-65
2023/08/31 01:11:58;;;;;;;3.30;0.90;;;;;;;-145.70;100.00;63560.63;5045218;28;20025;-62
2023/08/31 01:14:27;;;;;;;2.15;0.70;;;;;;;-145.70;100.00;63560.63;5043247;28;20028;-62
2023/08/31 01:16:55;;;;;;;2.38;0.80;;;;;;;-145.70;100.00;63560.63;5025849;28;20037;-66
2023/08/31 01:19:35;;;;;;;3.17;0.80;;;;;;;-145.70;100.00;63560.63;5046220;28;20032;-63
2023/08/31 01:22:12;;;;;;;4.50;0.93;;;;;;;-145.70;100.00;63560.63;5027322;28;20049;-60
2023/08/31 01:24:40;;;;;;;3.05;1.00;;;;;;;-145.70;100.00;63560.63;5026232;28;20365;-63
2023/08/31 01:27:06;;;;;;;2.50;0.77;;;;;;;-145.70;100.00;63560.63;5041538;28;20137;-62
2023/08/31 01:29:34;;;;;;;2.08;0.65;;;;;;;-145.70;100.00;63560.63;5037682;28;20876;-63
2023/08/31 01:32:05;;;;;;;2.95;0.93;;;;;;;-145.70;100.00;63560.63;5039247;28;20033;-62
2023/08/31 01:34:30;;;;;;;4.57;0.80;;;;;;;-145.70;100.00;63560.63;5026005;28;20060;-63
2023/08/31 01:36:58;;;;;;;5.45;1.45;;;;;;;-145.70;100.00;63560.63;5033202;28;20349;-61
2023/08/31 01:39:27;;;;;;;2.92;0.90;;;;;;;-145.70;100.00;63560.63;5054261;28;20036;-60
2023/08/31 01:42:00;;;;;;;2.42;0.75;;;;;;;-145.70;100.00;63560.63;5038206;28;20057;-67
2023/08/31 01:44:26;;;;;;;2.85;0.75;;;;;;;-145.70;100.00;63560.63;5043789;28;20083;-63
2023/08/31 01:46:55;;;;;;;2.65;0.70;;;;;;;-145.70;100.00;63560.63;5040973;28;20655;-63
2023/08/31 01:49:21;;;;;;;3.00;0.80;;;;;;;-145.70;100.00;63560.63;5033385;28;20056;-61
2023/08/31 01:51:49;;;;;;;2.53;0.75;;;;;;;-145.70;100.00;63560.63;5039035;28;20025;-60
2023/08/31 01:54:14;;;;;;;2.50;0.80;;;;;;;-145.70;100.00;63560.63;5026139;28;20403;-61
2023/08/31 01:56:42;;;;;;;3.28;0.80;;;;;;;-145.70;100.00;63560.63;5034713;28;20030;-60
2023/08/31 01:59:07;;;;;;;2.97;0.80;;;;;;;-145.70;100.00;63560.63;5023595;28;20044;-62
2023/08/31 02:01:33;;;;;;;2.88;0.70;;;;;;;-145.70;100.00;63560.63;5035520;28;20056;-62
2023/08/31 02:03:58;;;;;;;1.98;0.68;;;;;;;-145.70;100.00;63560.63;5039157;28;20033;-62
2023/08/31 02:06:24;;;;;;;2.42;0.73;;;;;;;-145.70;100.00;63560.63;5038321;28;20412;-61
2023/08/31 02:08:54;;;;;;;4.45;0.70;;;;;;;-145.70;100.00;63560.63;5036283;28;20104;-61
2023/08/31 02:11:21;;;;;;;2.25;0.80;;;;;;;-145.70;100.00;63560.63;5053811;28;20040;-61
2023/08/31 02:13:49;;;;;;;2.75;0.70;;;;;;;-145.70;100.00;63560.63;5041643;28;21190;-61
2023/08/31 02:16:14;;;;;;;2.17;0.70;;;;;;;-145.70;100.00;63560.63;5032576;28;20037;-61
2023/08/31 02:18:42;;;;;;;5.80;0.93;;;;;;;-145.70;100.00;63560.63;5022679;28;20044;-60
2023/08/31 02:21:07;;;;;;;2.70;0.70;;;;;;;-145.70;100.00;63560.63;5038172;28;20063;-59
2023/08/31 02:23:33;;;;;;;3.08;1.00;;;;;;;-145.70;100.00;63560.63;5043247;28;20146;-60
2023/08/31 02:25:58;;;;;;;4.82;0.88;;;;;;;-145.70;100.00;63560.63;5038148;28;20029;-62
2023/08/31 02:28:24;;;;;;;2.35;0.80;;;;;;;-145.70;100.00;63560.63;5025263;28;20056;-62
2023/08/31 02:30:58;;;;;;;2.35;0.60;;;;;;;-145.70;100.00;63560.63;5037568;28;20962;-62
2023/08/31 02:33:23;;;;;;;2.20;0.63;;;;;;;-145.70;100.00;63560.63;5037380;28;20035;-66
2023/08/31 02:35:49;;;;;;;2.35;0.63;;;;;;;-145.70;100.00;63560.63;5036459;28;20032;-61
2023/08/31 02:38:14;;;;;;;2.40;0.80;;;;;;;-145.70;100.00;63560.63;5039653;28;20606;-62
2023/08/31 02:40:39;;;;;;;2.90;0.80;;;;;;;-145.70;100.00;63560.63;5037891;28;20507;-62
2023/08/31 02:43:05;;;;;;;2.55;0.63;;;;;;;-145.70;100.00;63560.63;5021629;28;20094;-63
2023/08/31 02:45:30;;;;;;;2.95;0.93;;;;;;;-145.70;100.00;63560.63;5035419;28;20024;-61
2023/08/31 02:47:56;;;;;;;2.42;0.85;;;;;;;-145.70;100.00;63560.63;5040603;28;20048;-60
2023/08/31 02:50:21;;;;;;;2.70;0.85;;;;;;;-145.70;100.00;63560.63;5039175;28;20025;-62
2023/08/31 02:52:47;;;;;;;1.65;0.50;;;;;;;-145.70;100.00;63560.63;5042048;28;20441;-61
2023/08/31 02:55:14;;;;;;;2.15;0.75;;;;;;;-145.70;100.00;63560.63;5037485;28;20040;-62
2023/08/31 02:57:40;;;;;;;2.17;0.73;;;;;;;-145.70;100.00;63560.63;5044023;28;20080;-60
2023/08/31 03:00:10;;;;;;;3.88;0.98;;;;;;;-145.70;100.00;63560.63;5039212;28;20676;-61
2023/08/31 03:02:40;;;;;;;2.28;0.70;;;;;;;-145.70;100.00;63560.63;5036557;28;20400;-67
2023/08/31 03:05:06;;;;;;;4.93;0.80;;;;;;;-145.70;100.00;63560.63;5038128;28;20812;-61
2023/08/31 03:07:34;;;;;;;1.85;0.63;;;;;;;-145.70;100.00;63560.63;5039680;28;20034;-62
2023/08/31 03:09:59;;;;;;;3.33;0.90;;;;;;;-145.70;100.00;63560.63;5041662;28;20028;-61
2023/08/31 03:12:27;;;;;;;1.85;0.60;;;;;;;-145.70;100.00;63560.63;5020922;28;20032;-61
2023/08/31 03:14:55;;;;;;;2.45;0.70;;;;;;;-145.70;100.00;63560.63;5038927;28;20048;-63
2023/08/31 03:17:20;;;;;;;2.38;0.85;;;;;;;-145.70;100.00;63560.63;5039666;28;20128;-61
2023/08/31 03:19:46;;;;;;;4.57;0.80;;;;;;;-145.70;100.00;63560.63;5040900;28;20028;-62
2023/08/31 03:22:13;;;;;;;2.97;0.70;;;;;;;-145.70;100.00;63560.63;5023114;28;20037;-61
2023/08/31 03:24:39;;;;;;;3.13;0.80;;;;;;;-145.70;100.00;63560.63;5038166;28;20048;-65
2023/08/31 03:27:06;;;;;;;2.58;0.70;;;;;;;-145.70;100.00;63560.63;5022536;28;20053;-65
2023/08/31 03:29:32;;;;;;;3.38;0.85;;;;;;;-145.70;100.00;63560.63;5036312;28;20036;-66
2023/08/31 03:31:59;;;;;;;2.65;0.80;;;;;;;-145.70;100.00;63560.63;5032339;28;20033;-67
2023/08/31 03:34:31;;;;;;;2.22;0.70;;;;;;;-145.70;100.00;63560.63;5042077;28;20036;-66
2023/08/31 03:37:00;;;;;;;4.07;0.90;;;;;;;-145.70;100.00;63560.63;5023614;28;20067;-65
2023/08/31 03:39:25;;;;;;;2.63;0.83;;;;;;;-145.70;100.00;63560.63;5021612;28;20041;-66
2023/08/31 03:41:54;;;;;;;2.95;0.70;;;;;;;-145.70;100.00;63560.63;5039730;28;20094;-67
2023/08/31 03:44:21;;;;;;;2.50;0.80;;;;;;;-145.70;100.00;63560.63;5031231;28;20037;-68
2023/08/31 03:46:46;;;;;;;4.15;0.82;;;;;;;-145.70;100.00;63560.63;5044217;28;20029;-70
2023/08/31 03:49:12;;;;;;;2.92;0.80;;;;;;;-145.70;100.00;63560.63;5043519;28;20060;-67
2023/08/31 03:51:39;;;;;;;2.60;0.90;;;;;;;-145.70;100.00;63560.63;5029441;28;20150;-64
2023/08/31 03:54:05;;;;;;;2.20;0.68;;;;;;;-145.70;100.00;63560.63;5044397;28;20451;-66
2023/08/31 03:56:30;;;;;;;3.20;0.98;;;;;;;-145.70;100.00;63560.63;5029705;28;20025;-66
2023/08/31 03:58:58;;;;;;;2.78;0.75;;;;;;;-145.70;100.00;63560.63;5045216;28;20044;-67
2023/08/31 04:01:25;;;;;;;4.85;0.90;;;;;;;-145.70;100.00;63560.63;5045723;28;20091;-65
2023/08/31 04:03:53;;;;;;;3.05;0.93;;;;;;;-145.70;100.00;63560.63;5025404;28;20067;-67
2023/08/31 04:06:19;;;;;;;2.65;0.80;;;;;;;-145.70;100.00;63560.63;5026936;28;20029;-67
2023/08/31 04:08:49;;;;;;;2.90;0.88;;;;;;;-145.70;100.00;63560.63;5044766;28;20102;-65
2023/08/31 04:11:17;;;;;;;2.85;0.88;;;;;;;-145.70;100.00;63560.63;5040498;28;20108;-66
2023/08/31 04:13:45;;;;;;;2.63;0.90;;;;;;;-145.70;100.00;63560.63;5045504;28;20166;-66
2023/08/31 04:16:10;;;;;;;2.53;0.80;;;;;;;-145.70;100.00;63560.63;5022832;28;20391;-65
2023/08/31 04:18:36;;;;;;;2.70;0.88;;;;;;;-145.70;100.00;63560.63;5040335;28;20029;-70
2023/08/31 04:21:04;;;;;;;3.42;1.00;;;;;;;-145.70;100.00;63560.63;5042330;28;20119;-67
2023/08/31 04:23:34;;;;;;;2.78;0.73;;;;;;;-145.70;100.00;63560.63;5028798;28;20044;-66
2023/08/31 04:26:09;;;;;;;3.17;0.95;;;;;;;-145.70;100.00;63560.63;5026625;28;20025;-66
2023/08/31 04:28:34;;;;;;;4.07;1.08;;;;;;;-145.70;100.00;63560.63;5045043;28;20060;-70
2023/08/31 04:31:02;;;;;;;4.40;0.88;;;;;;;-145.70;100.00;63560.63;5024072;28;20039;-66
2023/08/31 04:33:31;;;;;;;5.00;1.20;;;;;;;-145.70;100.00;63560.63;5046119;28;20037;-64
2023/08/31 04:35:56;;;;;;;3.50;1.08;;;;;;;-145.70;100.00;63560.63;5047552;28;20122;-68
2023/08/31 04:38:22;;;;;;;3.85;1.10;;;;;;;-145.70;100.00;63560.63;5043655;28;20032;-67
2023/08/31 04:40:49;;;;;;;3.45;0.85;;;;;;;-145.70;100.00;63560.63;5029055;28;20498;-65
2023/08/31 04:43:15;;;;;;;3.63;1.13;;;;;;;-145.70;100.00;63560.63;5045203;28;20086;-65
2023/08/31 04:45:40;;;;;;;2.47;0.80;;;;;;;-145.70;100.00;63560.63;5040807;28;20037;-64
2023/08/31 04:48:06;;;;;;;3.50;0.90;;;;;;;-145.70;100.00;63560.63;5019373;28;20032;-70
2023/08/31 04:50:34;;;;;;;3.72;1.00;;;;;;;-145.70;100.00;63560.63;5040504;28;20646;-67
2023/08/31 04:53:01;;;;;;;2.20;0.70;;;;;;;-145.70;100.00;63560.63;5023291;28;20046;-65
2023/08/31 04:55:27;;;;;;;3.22;1.00;;;;;;;-145.70;100.00;63560.63;5031632;28;20036;-63
2023/08/31 04:57:56;;;;;;;3.70;0.90;;;;;;;-145.70;100.00;63560.63;5023479;28;20047;-67
2023/08/31 05:00:25;;;;;;;4.63;1.38;;;;;;;-145.70;100.00;63560.63;5036603;28;20124;-66
2023/08/31 05:02:50;;;;;;;3.35;0.98;;;;;;;-145.70;100.00;63560.63;5041363;28;20570;-64
2023/08/31 05:05:18;;;;;;;3.88;1.02;;;;;;;-145.70;100.00;63560.63;5038203;28;20052;-66
2023/08/31 05:07:43;;;;;;;2.70;0.93;;;;;;;-145.70;100.00;63560.63;5029601;28;20196;-72
2023/08/31 05:10:09;;;;;;;3.40;1.02;;;;;;;-145.70;100.00;63560.63;5031645;28;20830;-66
2023/08/31 05:12:37;;;;;;;3.47;1.02;;;;;;;-145.70;100.00;63560.63;5039689;28;20087;-66
2023/08/31 05:15:02;;;;;;;2.85;0.90;;;;;;;-145.70;100.00;63560.63;5035365;28;20059;-64
2023/08/31 05:17:30;;;;;;;2.33;0.80;;;;;;;-145.70;100.00;63560.63;5020368;28;20535;-66
2023/08/31 05:19:56;;;;;;;2.90;0.90;;;;;;;-145.70;100.00;63560.63;5040119;28;20036;-68
2023/08/31 05:22:22;;;;;;;4.22;1.00;;;;;;;-145.70;100.00;63560.63;5032741;28;20033;-66
2023/08/31 05:24:47;;;;;;;3.80;1.10;;;;;;;-145.70;100.00;63560.63;5034471;28;20029;-66
2023/08/31 05:27:13;;;;;;;3.05;0.98;;;;;;;-145.70;100.00;63560.63;5041104;28;20130;-68
2023/08/31 05:29:43;;;;;;;3.60;1.05;;;;;;;-145.70;100.00;63560.63;5038940;28;20044;-71
2023/08/31 05:32:08;;;;;;;3.50;1.20;;;;;;;-145.70;100.00;63560.63;5023725;28;20032;-68
2023/08/31 05:34:38;;;;;;;3.22;0.90;;;;;;;-145.70;100.00;63560.63;5020104;28;20157;-71
2023/08/31 05:37:04;;;;;;;3.22;1.00;;;;;;;-145.70;100.00;63560.63;5023402;28;20519;-64
2023/08/31 05:39:32;;;;;;;2.92;1.00;;;;;;;-145.70;100.00;63560.63;5022473;28;20112;-65
2023/08/31 05:41:57;;;;;;;3.63;1.10;;;;;;;-145.70;100.00;63560.63;5035812;28;20040;-67
2023/08/31 05:44:23;;;;;;;3.53;1.00;;;;;;;-145.70;100.00;63560.63;5038655;28;20037;-67
2023/08/31 05:46:48;;;;;;;3.28;1.00;;;;;;;-145.70;100.00;63560.63;5037003;28;20964;-66
2023/08/31 05:49:14;;;;;;;3.17;0.90;;;;;;;-145.70;100.00;63560.63;5041456;28;20041;-68
2023/08/31 05:51:39;;;;;;;3.22;1.10;;;;;;;-145.70;100.00;63560.63;5039524;28;20146;-67
2023/08/31 05:54:05;;;;;;;3.38;0.98;;;;;;;-145.70;100.00;63560.63;5022632;28;20495;-64
2023/08/31 05:56:32;;;;;;;3.28;0.82;;;;;;;-145.70;100.00;63560.63;5020291;28;20033;-66
2023/08/31 05:58:58;;;;;;;3.55;1.33;;;;;;;-145.70;100.00;63560.63;5038015;28;20036;-66
2023/08/31 06:01:26;;;;;;;2.95;1.00;;;;;;;-145.70;100.00;63560.63;5037172;28;20037;-70
2023/08/31 06:03:51;;;;;;;2.95;0.95;;;;;;;-145.70;100.00;63560.63;5018054;28;20037;-64
2023/08/31 06:06:19;;;;;;;4.32;1.00;;;;;;;-145.70;100.00;63560.63;5039758;28;20037;-67
2023/08/31 06:08:48;;;;;;;3.33;1.13;;;;;;;-145.70;100.00;63560.63;5038126;28;20021;-67
2023/08/31 06:11:13;;;;;;;3.30;1.07;;;;;;;-145.70;100.00;63560.63;5041576;28;20056;-67
2023/08/31 06:13:38;;;;;;;3.50;1.20;;;;;;;-145.70;100.00;63560.63;5037396;28;20056;-64
2023/08/31 06:16:04;;;;;;;3.47;1.00;;;;;;;-145.70;100.00;63560.63;5019132;28;20427;-65
2023/08/31 06:18:34;;;;;;;2.85;0.90;;;;;;;-145.70;100.00;63560.63;5036201;28;20151;-66
2023/08/31 06:21:00;;;;;;;4.07;1.05;;;;;;;-145.70;100.00;63560.63;5023456;28;20475;-65
2023/08/31 06:23:30;;;;;;;3.97;1.00;;;;;;;-145.70;100.00;63560.63;5028608;28;20044;-67
2023/08/31 06:25:58;;;;;;;4.05;1.08;;;;;;;-145.70;100.00;63560.63;5038419;28;20025;-67
2023/08/31 06:28:28;;;;;;;3.13;1.00;;;;;;;-145.70;100.00;63560.63;5022767;28;20052;-69
2023/08/31 06:30:54;;;;;;;4.28;1.10;;;;;;;-145.70;100.00;63560.63;5036525;28;20033;-67
2023/08/31 06:33:20;;;;;;;3.53;1.00;;;;;;;-145.70;100.00;63560.63;5054580;28;20033;-66
2023/08/31 06:35:54;;;;;;;3.50;1.10;;;;;;;-145.70;100.00;63560.63;5038641;28;20125;-66
2023/08/31 06:38:19;;;;;;;3.10;1.05;;;;;;;-145.70;100.00;63560.63;5025759;28;20029;-63
2023/08/31 06:40:46;;;;;;;3.40;1.10;;;;;;;-145.70;100.00;63560.63;5046801;28;20497;-65
2023/08/31 06:43:12;;;;;;;3.35;1.10;;;;;;;-145.70;100.00;63560.63;5039474;28;20025;-67
2023/08/31 06:45:40;;;;;;;3.15;0.98;;;;;;;-145.70;100.00;63560.63;5052552;28;20037;-65
2023/08/31 06:48:05;;;;;;;3.97;1.20;;;;;;;-145.70;100.00;63560.63;5021943;28;20034;-68
2023/08/31 06:50:33;;;;;;;3.65;1.10;;;;;;;-145.70;100.00;63560.63;5024433;28;20033;-69
2023/08/31 06:53:03;;;;;;;3.47;1.20;;;;;;;-145.70;100.00;63560.63;5027633;28;20717;-67
2023/08/31 06:55:29;;;;;;;2.97;1.00;;;;;;;-145.70;100.00;63560.63;5039744;28;20479;-65
2023/08/31 06:57:54;;;;;;;3.63;1.05;;;;;;;-145.70;100.00;63560.63;5041887;28;20037;-65
2023/08/31 07:00:24;;;;;;;6.63;1.30;;;;;;;-145.70;100.00;63560.63;5034546;28;20029;-67
2023/08/31 07:02:53;;;;;;;4.70;1.60;;;;;;;-145.70;100.00;63560.63;5044626;28;20025;-63
2023/08/31 07:05:25;;;;;;;4.25;1.75;;;;;;;-145.70;100.00;63560.63;5021921;28;20041;-70
2023/08/31 07:07:53;;;;;;;4.78;1.88;;;;;;;-145.70;100.00;63560.63;5039941;28;20025;-66
2023/08/31 07:10:19;;;;;;;4.70;2.10;;;;;;;-145.70;100.00;63560.63;5044983;28;20047;-67
2023/08/31 07:12:46;;;;;;;4.85;1.55;;;;;;;-145.70;100.00;63560.63;5040793;28;20029;-66
2023/08/31 07:15:14;;;;;;;7.60;2.42;;;;;;;-145.70;100.00;63560.63;5023536;28;20032;-67
2023/08/31 07:17:40;;;;;;;5.65;1.90;;;;;;;-145.70;100.00;63560.63;5035792;28;20024;-64
2023/08/31 07:20:09;;;;;;;3.70;1.20;;;;;;;-145.70;100.00;63560.63;5037712;28;20720;-65
2023/08/31 07:22:34;;;;;;;3.30;1.20;;;;;;;-145.70;100.00;63560.63;5041450;28;20115;-67
2023/08/31 07:25:00;;;;;;;3.72;1.20;;;;;;;-145.70;100.00;63560.63;5038427;28;20032;-67
2023/08/31 07:27:27;;;;;;;5.35;1.20;;;;;;;-145.70;100.00;63560.63;5037112;28;20421;-66
2023/08/31 07:29:56;;;;;;;7.10;1.70;;;;;;;-145.70;100.00;63560.63;5040777;28;20025;-65
2023/08/31 07:32:24;;;;;;;3.85;1.08;;;;;;;-145.70;100.00;63560.63;5038233;28;20103;-64
2023/08/31 07:34:49;;;;;;;7.47;1.60;;;;;;;-145.70;100.00;63560.63;5039946;28;20764;-66
2023/08/31 07:37:14;;;;;;;2.92;1.00;;;;;;;-145.70;100.00;63560.63;5037909;28;20060;-65
2023/08/31 07:39:40;;;;;;;4.15;1.27;;;;;;;-145.70;100.00;63560.63;5037058;28;20061;-65
2023/08/31 07:42:11;;;;;;;3.25;1.00;;;;;;;-145.70;100.00;63560.63;5026087;28;20068;-68
2023/08/31 07:44:39;;;;;;;5.07;1.30;;;;;;;-145.70;100.00;63560.63;5035223;28;20044;-65
2023/08/31 07:47:07;;;;;;;4.43;1.20;;;;;;;-145.70;100.00;63560.63;5040385;28;20033;-66
2023/08/31 07:49:35;;;;;;;8.10;1.20;;;;;;;-145.70;100.00;63560.63;5039626;28;20033;-67
2023/08/31 07:52:03;;;;;;;3.55;1.20;;;;;;;-145.70;100.00;63560.63;5035827;28;20032;-66
2023/08/31 07:54:28;;;;;;;3.78;1.17;;;;;;;-145.70;100.00;63560.63;5038060;28;20082;-66
2023/08/31 07:56:54;;;;;;;4.40;1.38;;;;;;;-145.70;100.00;63560.63;5041773;28;20025;-67
2023/08/31 07:59:22;;;;;;;6.65;1.40;;;;;;;-145.70;100.00;63560.63;5039468;28;20029;-66
2023/08/31 08:01:48;;;;;;;4.65;1.20;;;;;;;-145.70;100.00;63560.63;5037056;28;20033;-67
2023/08/31 08:04:19;;;;;;;5.00;1.25;;;;;;;-145.70;100.00;63560.63;5040898;28;20039;-67
2023/08/31 08:06:44;;;;;;;6.70;1.33;;;;;;;-145.70;100.00;63560.63;5037224;28;20029;-67
2023/08/31 08:09:09;;;;;;;3.22;1.00;;;;;;;-145.70;100.00;63560.63;5015928;28;20048;-65
2023/08/31 08:11:35;;;;;;;3.50;1.10;;;;;;;-145.70;100.00;63560.63;5017778;28;20338;-65
2023/08/31 08:14:03;;;;;;;6.13;1.30;;;;;;;-145.70;100.00;63560.63;5039388;28;20040;-66
2023/08/31 08:16:29;;;;;;;4.72;1.10;;;;;;;-145.70;100.00;63560.63;5027949;28;20039;-66
2023/08/31 08:18:54;;;;;;;4.15;1.15;;;;;;;-145.70;100.00;63560.63;5034038;28;20024;-66
2023/08/31 08:21:22;;;;;;;3.70;1.13;;;;;;;-145.70;100.00;63560.63;5031065;28;20381;-65
2023/08/31 08:23:50;;;;;;;5.13;1.35;;;;;;;-145.70;100.00;63560.63;5043398;28;20029;-68
2023/08/31 08:26:18;;;;;;;6.10;1.47;;;;;;;-145.70;100.00;63560.63;5025673;28;20063;-66
2023/08/31 08:28:43;;;;;;;4.25;1.30;;;;;;;-145.70;100.00;63560.63;5037632;28;20028;-65
2023/08/31 08:31:09;;;;;;;3.35;1.10;;;;;;;-145.70;100.00;63560.63;5040986;28;20033;-65
2023/08/31 08:33:34;;;;;;;3.55;1.05;;;;;;;-145.70;100.00;63560.63;5037466;28;20080;-67
2023/08/31 08:36:00;;;;;;;4.10;1.20;;;;;;;-145.70;100.00;63560.63;5057911;28;20504;-66
2023/08/31 08:38:26;;;;;;;6.90;1.23;;;;;;;-145.70;100.00;63560.63;5045482;28;20150;-66
2023/08/31 08:40:53;;;;;;;4.53;1.25;;;;;;;-145.70;100.00;63560.63;5026391;28;20040;-65
2023/08/31 08:43:28;;;;;;;2.88;0.90;;;;;;;-145.70;100.00;63560.63;5025678;28;20116;-66
2023/08/31 08:45:54;;;;;;;3.22;1.13;;;;;;;-145.70;100.00;63560.63;5043947;28;20025;-66
2023/08/31 08:48:20;;;;;;;3.70;1.10;;;;;;;-145.70;100.00;63560.63;5043479;28;20090;-64
2023/08/31 08:50:48;;;;;;;3.72;1.00;;;;;;;-145.70;100.00;63560.63;5042196;28;20025;-66
2023/08/31 08:53:15;;;;;;;3.58;1.23;;;;;;;-145.70;100.00;63560.63;5042005;28;20530;-67
2023/08/31 08:55:41;;;;;;;4.30;1.30;;;;;;;-145.70;100.00;63560.63;5037736;28;20045;-71
2023/08/31 08:58:09;;;;;;;2.63;1.00;;;;;;;-145.70;100.00;63560.63;5044539;28;20525;-67
2023/08/31 09:00:35;;;;;;;4.43;1.38;;;;;;;-145.70;100.00;63560.63;5027344;28;20071;-66
2023/08/31 09:03:03;;;;;;;3.05;1.13;;;;;;;-145.70;100.00;63560.63;5021344;28;20057;-65
2023/08/31 09:05:32;;;;;;;4.25;1.00;;;;;;;-145.70;100.00;63560.63;5023845;28;20067;-67
2023/08/31 09:08:09;;;;;;;3.25;1.00;;;;;;;-145.70;100.00;63560.63;5042346;28;20495;-65
2023/08/31 09:10:35;;;;;;;3.38;1.20;;;;;;;-145.70;100.00;63560.63;5041778;28;20071;-66
2023/08/31 09:13:01;;;;;;;4.00;1.30;;;;;;;-145.70;100.00;63560.63;5045289;28;20033;-66
2023/08/31 09:15:36;;;;;;;3.30;1.15;;;;;;;-145.70;100.00;63560.63;5026682;28;20059;-66
2023/08/31 09:18:02;;;;;;;4.03;1.00;;;;;;;-145.70;100.00;63560.63;5037444;28;20103;-65
2023/08/31 09:20:28;;;;;;;4.60;1.10;;;;;;;-145.70;100.00;63560.63;5042221;28;20056;-67
2023/08/31 09:22:55;;;;;;;2.92;1.02;;;;;;;-145.70;100.00;63560.63;5028188;28;20185;-66
2023/08/31 09:25:21;;;;;;;4.68;1.20;;;;;;;-145.70;100.00;63560.63;5044656;28;20021;-65
2023/08/31 09:27:47;;;;;;;3.42;1.00;;;;;;;-145.70;100.00;63560.63;5023352;28;20060;-65
2023/08/31 09:30:13;;;;;;;3.30;1.08;;;;;;;-145.70;100.00;63560.63;5044422;28;20028;-65
2023/08/31 09:32:38;;;;;;;2.83;0.90;;;;;;;-145.70;100.00;63560.63;5038625;28;20085;-66
2023/08/31 09:35:08;;;;;;;3.40;1.05;;;;;;;-145.70;100.00;63560.63;5026074;28;20049;-63
2023/08/31 09:37:34;;;;;;;4.45;1.10;;;;;;;-145.70;100.00;63560.63;5042614;28;20036;-67
2023/08/31 09:40:03;;;;;;;3.72;1.00;;;;;;;-145.70;100.00;63560.63;5039729;28;20029;-67
2023/08/31 09:42:38;;;;;;;3.45;1.13;;;;;;;-145.70;100.00;63560.63;5036503;28;20140;-67
2023/08/31 09:45:04;;;;;;;4.57;0.90;;;;;;;-145.70;100.00;63560.63;5023566;28;20037;-66
2023/08/31 09:47:30;;;;;;;4.63;1.20;;;;;;;-145.70;100.00;63560.63;5023577;28;20083;-66
2023/08/31 09:49:57;;;;;;;3.55;1.20;;;;;;;-145.70;100.00;63560.63;5040710;28;20734;-66
2023/08/31 09:52:23;;;;;;;3.42;1.52;;;;;;;-145.70;100.00;63560.63;5042307;28;20028;-65
2023/08/31 09:54:50;;;;;;;3.22;1.10;;;;;;;-145.70;100.00;63560.63;5025252;28;20017;-68
2023/08/31 09:57:18;;;;;;;3.88;1.20;;;;;;;-145.70;100.00;63560.63;5039760;28;20043;-66
2023/08/31 09:59:46;;;;;;;3.53;1.00;;;;;;;-145.70;100.00;63560.63;5040862;28;20033;-65
2023/08/31 10:02:15;;;;;;;4.15;1.20;;;;;;;-145.70;100.00;63560.63;5021901;28;20464;-65
2023/08/31 10:04:41;;;;;;;3.38;1.08;;;;;;;-145.70;100.00;63560.63;5035167;28;20033;-66
2023/08/31 10:07:09;;;;;;;3.70;1.10;;;;;;;-145.70;100.00;63560.63;5035344;28;20060;-66
2023/08/31 10:09:35;;;;;;;3.20;1.10;;;;;;;-145.70;100.00;63560.63;5024795;28;20514;-66
2023/08/31 10:12:04;;;;;;;4.30;1.20;;;;;;;-145.70;100.00;63560.63;5025068;28;20075;-67
2023/08/31 10:14:29;;;;;;;3.17;1.03;;;;;;;-145.70;100.00;63560.63;5043285;28;20025;-65
2023/08/31 10:16:56;;;;;;;3.35;1.10;;;;;;;-145.70;100.00;63560.63;5041904;28;20478;-66
2023/08/31 10:19:21;;;;;;;3.97;1.20;;;;;;;-145.70;100.00;63560.63;5053099;28;20029;-67
2023/08/31 10:21:51;;;;;;;3.70;1.15;;;;;;;-145.70;100.00;63560.63;5045149;28;20029;-66
2023/08/31 10:24:55;;;;;;;4.28;1.10;;;;;;;-145.70;100.00;63560.63;5019573;28;20117;-66
2023/08/31 10:27:20;;;;;;;3.50;1.08;;;;;;;-145.70;100.00;63560.63;5035104;28;20077;-63
2023/08/31 10:29:48;;;;;;;4.05;1.08;;;;;;;-145.70;100.00;63560.63;5024888;28;20125;-67
2023/08/31 10:32:21;;;;;;;3.00;0.95;;;;;;;-145.70;100.00;63560.63;5038978;28;20033;-64
2023/08/31 10:35:07;;;;;;;3.72;1.40;;;;;;;-145.70;100.00;63560.63;5038192;28;20067;-65
2023/08/31 10:37:35;;;;;;;3.53;1.10;;;;;;;-145.70;100.00;63560.63;5040956;28;20044;-65
2023/08/31 10:40:08;;;;;;;4.25;1.40;;;;;;;-145.70;100.00;63560.63;5040951;28;20035;-66
2023/08/31 10:42:41;;;;;;;2.80;0.98;;;;;;;-145.70;100.00;63560.63;5040861;28;20429;-67
2023/08/31 10:45:10;;;;;;;4.47;1.20;;;;;;;-145.70;100.00;63560.63;5037618;28;20037;-64
2023/08/31 10:47:41;;;;;;;3.00;1.10;;;;;;;-145.70;100.00;63560.63;5017701;28;20033;-65
2023/08/31 10:50:21;;;;;;;3.45;1.20;;;;;;;-145.70;100.00;63560.63;5020250;28;20052;-65
2023/08/31 10:52:47;;;;;;;4.10;1.00;;;;;;;-145.70;100.00;63560.63;5038200;28;20103;-64
2023/08/31 10:55:12;;;;;;;3.35;1.10;;;;;;;-145.70;100.00;63560.63;5036293;28;20387;-66
2023/08/31 10:57:40;;;;;;;3.63;1.20;;;;;;;-145.70;100.00;63560.63;5020939;28;20439;-69
2023/08/31 11:00:07;;;;;;;4.85;1.10;;;;;;;-145.70;100.00;63560.63;5038540;28;20082;-65
2023/08/31 11:02:45;;;;;;;3.20;1.00;;;;;;;-145.70;100.00;63560.63;5032602;28;20546;-64
2023/08/31 11:05:16;;;;;;;4.90;1.30;;;;;;;-145.70;100.00;63560.63;5035419;28;20107;-65
2023/08/31 11:07:49;;;;;;;4.57;1.30;;;;;;;-145.70;100.00;63560.63;5043292;28;20029;-64
2023/08/31 11:10:14;;;;;;;3.58;1.30;;;;;;;-145.70;100.00;63560.63;5020509;28;20052;-66
2023/08/31 11:12:44;;;;;;;3.78;1.17;;;;;;;-145.70;100.00;63560.63;5043093;28;20495;-64